createdAt,value
2023-05-01T00:09:44.984Z,102061.42
2023-05-01T00:14:14.655Z,102057.41
2023-05-01T00:44:56.333Z,102044.70
2023-05-01T00:49:25.567Z,102034.39
2023-05-01T01:16:16.311Z,102013.44
2023-05-01T01:20:51.383Z,102011.67
2023-05-01T01:25:17.965Z,102009.94
2023-05-01T01:30:01.740Z,102003.13
2023-05-01T01:34:42.532Z,101999.98
2023-05-01T02:00:51.209Z,101992.30
2023-05-01T02:05:19.849Z,101987.06
2023-05-01T02:09:49.279Z,101988.29
2023-05-01T02:18:13.938Z,101979.03
2023-05-01T02:22:43.423Z,101976.59
2023-05-01T02:27:12.582Z,101972.91
2023-05-01T02:31:43.132Z,101965.23
2023-05-01T02:49:03.197Z,101951.95
2023-05-01T02:53:32.461Z,101949.48
2023-05-01T03:10:54.478Z,101943.50
2023-05-01T03:15:23.181Z,101935.64
2023-05-01T03:19:51.805Z,101936.34
2023-05-01T03:45:57.724Z,101932.89
2023-05-01T04:08:38.436Z,101928.64
2023-05-01T04:13:07.070Z,101924.11
2023-05-01T04:17:36.851Z,101924.48
2023-05-01T04:22:06.654Z,101923.20
2023-05-01T04:39:11.158Z,101913.92
2023-05-01T04:43:34.710Z,101913.23
2023-05-01T05:00:52.194Z,101912.14
2023-05-01T05:05:20.828Z,101906.91
2023-05-01T05:09:49.976Z,101900.15
2023-05-01T05:31:26.230Z,101887.30
2023-05-01T05:35:56.470Z,101887.70
2023-05-01T06:02:09.416Z,101871.34
2023-05-01T06:06:38.894Z,101865.81
2023-05-01T06:24:05.359Z,101857.20
2023-05-01T06:28:35.657Z,101856.18
2023-05-01T06:50:15.548Z,101850.93
2023-05-01T06:54:36.743Z,101836.80
2023-05-01T06:59:07.634Z,101835.81
2023-05-01T07:03:29.712Z,101829.77
2023-05-01T07:25:01.225Z,101814.17
2023-05-01T07:29:30.295Z,101811.29
2023-05-01T07:33:59.046Z,101812.42
2023-05-01T07:38:30.381Z,101804.58
2023-05-01T07:42:47.646Z,101801.77
2023-05-01T07:47:04.383Z,101800.21
2023-05-01T08:08:19.162Z,101777.64
2023-05-01T08:12:48.456Z,101773.89
2023-05-01T08:17:18.319Z,101769.69
2023-05-01T08:21:35.674Z,101761.11
2023-05-01T08:47:31.174Z,101762.52
2023-05-01T08:51:48.165Z,101748.64
2023-05-01T08:56:06.996Z,101740.09
2023-05-01T09:00:07.614Z,101739.88
2023-05-01T09:04:14.802Z,101734.60
2023-05-01T09:08:30.365Z,101727.18
2023-05-01T09:12:59.109Z,101719.15
2023-05-01T09:17:16.786Z,101712.66
2023-05-01T09:21:38.811Z,101707.35
2023-05-01T09:43:17.271Z,101682.96
2023-05-01T09:47:46.324Z,101678.27
2023-05-01T09:52:24.875Z,101675.64
2023-05-01T10:09:58.576Z,101653.16
2023-05-01T10:14:17.851Z,101647.50
2023-05-01T10:18:37.717Z,101645.45
2023-05-01T10:22:49.396Z,101641.70
2023-05-01T10:27:11.750Z,101631.91
2023-05-01T11:01:21.606Z,101570.39
2023-05-01T11:05:44.483Z,101563.84
2023-05-01T11:10:21.689Z,101560.11
2023-05-01T11:15:08.587Z,101554.31
2023-05-01T11:19:31.049Z,101546.33
2023-05-01T11:23:54.102Z,101538.39
2023-05-01T11:28:16.443Z,101535.95
2023-05-01T12:06:48.992Z,101463.86
2023-05-01T12:11:06.573Z,101455.15
2023-05-01T12:15:36.615Z,101444.21
2023-05-01T12:20:11.364Z,101441.36
2023-05-01T12:24:21.399Z,101431.05
2023-05-01T12:41:38.898Z,101397.98
2023-05-01T12:45:46.724Z,101395.93
2023-05-01T12:50:12.986Z,101383.37
2023-05-01T12:54:33.789Z,101380.80
2023-05-01T13:16:22.173Z,101338.27
2023-05-01T13:20:39.394Z,101335.48
2023-05-01T13:25:17.023Z,101331.27
2023-05-01T13:29:46.270Z,101327.34
2023-05-01T13:34:00.871Z,101319.64
2023-05-01T14:07:07.122Z,101282.48
2023-05-01T14:11:23.088Z,101284.28
2023-05-01T14:15:40.528Z,101287.98
2023-05-01T14:37:11.473Z,101268.60
2023-05-01T14:41:29.145Z,101259.98
2023-05-01T14:45:48.477Z,101258.02
2023-05-01T15:11:02.169Z,101218.10
2023-05-01T15:15:06.506Z,101222.02
2023-05-01T15:19:19.912Z,101226.65
2023-05-01T15:23:52.052Z,101220.02
2023-05-01T15:28:13.123Z,101216.23
2023-05-01T15:32:19.388Z,101208.30
2023-05-01T16:02:51.957Z,101191.34
2023-05-01T16:06:51.754Z,101187.67
2023-05-01T16:11:22.550Z,101186.32
2023-05-01T16:32:24.378Z,101161.20
2023-05-01T16:36:42.701Z,101165.02
2023-05-01T16:40:44.034Z,101159.09
2023-05-01T16:44:57.044Z,101163.48
2023-05-01T16:49:15.424Z,101168.66
2023-05-01T16:53:39.943Z,101162.17
2023-05-01T16:57:54.456Z,101163.17
2023-05-01T17:02:07.086Z,101157.33
2023-05-01T17:06:14.274Z,101156.35
2023-05-01T17:32:52.634Z,101155.91
2023-05-01T17:37:22.516Z,101152.73
2023-05-01T17:58:38.714Z,101141.45
2023-05-01T18:02:51.353Z,101136.19
2023-05-01T18:07:21.626Z,101128.55
2023-05-01T18:32:24.746Z,101138.34
2023-05-01T18:36:48.320Z,101138.66
2023-05-01T18:40:49.826Z,101137.75
2023-05-01T19:08:35.156Z,101125.91
2023-05-01T19:13:04.756Z,101123.60
2023-05-01T19:34:39.567Z,101123.73
2023-05-01T19:38:57.195Z,101127.98
2023-05-01T19:43:37.532Z,101123.27
2023-05-01T20:02:14.380Z,101124.93
2023-05-01T20:06:45.826Z,101120.16
2023-05-01T20:24:15.700Z,101113.20
2023-05-01T20:28:44.561Z,101110.92
2023-05-01T20:33:15.294Z,101116.27
2023-05-01T20:59:11.924Z,101115.71
2023-05-01T21:03:41.066Z,101114.39
2023-05-01T21:08:11.551Z,101110.41
2023-05-01T21:25:24.472Z,101104.23
2023-05-01T21:29:53.710Z,101107.23
2023-05-01T21:34:27.116Z,101108.77
2023-05-01T21:55:59.227Z,101100.56
2023-05-01T22:00:28.056Z,101101.75
2023-05-01T22:04:57.701Z,101096.15
2023-05-01T22:09:28.408Z,101094.04
2023-05-01T22:13:58.501Z,101098.89
2023-05-01T22:31:18.280Z,101088.33
2023-05-01T22:35:47.217Z,101092.86
2023-05-01T22:40:04.636Z,101091.55
2023-05-01T23:08:07.514Z,101097.57
2023-05-01T23:12:36.823Z,101095.97
2023-05-01T23:17:05.689Z,101085.45
2023-05-01T23:38:58.152Z,101074.37
2023-05-01T23:43:26.943Z,101066.33
2023-05-01T23:47:56.128Z,101068.16
